Time;durP1;ratioP1;P1;durP2;ratioP2;P2;SDS_P1;SDS_P2;PMS_P1;PMS_P2;Temp;Humidity;BMP_temperature;BMP_pressure;BME280_temperature;BME280_humidity;BME280_pressure;Samples;Min_cycle;Max_cycle;Signal;HPM_P1;HPM_P2
2020/12/24 00:02:05;;;;;;;23.48;11.77;;;0.40;84.10;;;;;;5075932;28;20082;-45
2020/12/24 00:04:30;;;;;;;19.88;11.70;;;0.40;84.00;;;;;;5075756;28;20115;-44
2020/12/24 00:06:56;;;;;;;27.10;12.55;;;0.40;83.90;;;;;;5075998;28;20098;-43
2020/12/24 00:09:22;;;;;;;21.42;12.20;;;0.40;83.80;;;;;;5075780;28;20027;-43
2020/12/24 00:11:47;;;;;;;24.70;12.95;;;0.40;83.80;;;;;;5075283;28;20059;-44
2020/12/24 00:14:13;;;;;;;23.27;12.27;;;0.40;83.80;;;;;;5074991;28;20135;-45
2020/12/24 00:16:39;;;;;;;24.85;12.02;;;0.40;83.70;;;;;;5075865;28;20029;-45
2020/12/24 00:19:04;;;;;;;26.55;12.88;;;0.40;83.70;;;;;;5075459;28;20056;-42
2020/12/24 00:21:38;;;;;;;22.25;12.07;;;0.40;83.60;;;;;;5075803;28;20089;-44
2020/12/24 00:24:04;;;;;;;21.27;12.00;;;0.40;83.60;;;;;;5074241;28;20317;-43
2020/12/24 00:26:30;;;;;;;21.08;12.52;;;0.50;83.60;;;;;;5075473;28;20020;-43
2020/12/24 00:28:57;;;;;;;22.60;12.32;;;0.50;83.60;;;;;;5075415;28;20035;-45
2020/12/24 00:31:22;;;;;;;26.13;14.38;;;0.40;83.40;;;;;;5075929;28;20028;-43
2020/12/24 00:33:48;;;;;;;24.17;13.20;;;0.50;83.60;;;;;;5074432;28;20051;-44
2020/12/24 00:36:14;;;;;;;23.65;13.18;;;0.50;83.40;;;;;;5075187;28;20111;-43
2020/12/24 00:38:40;;;;;;;22.83;12.07;;;0.50;83.50;;;;;;5075045;28;20039;-43
2020/12/24 00:41:07;;;;;;;21.35;12.73;;;0.50;83.30;;;;;;5075454;28;20031;-46
2020/12/24 00:43:33;;;;;;;21.70;12.70;;;0.50;83.30;;;;;;5074905;28;20060;-44
2020/12/24 00:45:59;;;;;;;22.25;13.43;;;0.50;83.30;;;;;;5075591;28;20032;-43
2020/12/24 00:48:25;;;;;;;19.55;11.38;;;0.50;83.30;;;;;;5075018;28;20037;-44
2020/12/24 00:50:51;;;;;;;20.08;12.35;;;0.50;83.30;;;;;;5075558;28;20031;-45
2020/12/24 00:53:16;;;;;;;23.23;13.35;;;0.60;83.40;;;;;;5074946;28;20032;-43
2020/12/24 00:55:42;;;;;;;23.73;12.73;;;0.60;83.30;;;;;;5075294;28;20032;-45
2020/12/24 00:58:08;;;;;;;19.65;11.30;;;0.60;83.30;;;;;;5074772;28;20032;-43
2020/12/24 01:00:34;;;;;;;17.85;11.18;;;0.60;83.20;;;;;;5075819;28;20422;-44
2020/12/24 01:02:59;;;;;;;20.85;12.50;;;0.70;83.20;;;;;;5074839;28;20025;-43
2020/12/24 01:05:25;;;;;;;24.55;12.23;;;0.70;83.10;;;;;;5075146;28;20463;-44
2020/12/24 01:07:51;;;;;;;22.02;12.38;;;0.70;83.00;;;;;;5075399;28;20028;-47
2020/12/24 01:10:17;;;;;;;19.85;11.98;;;0.70;82.90;;;;;;5075168;28;20028;-43
2020/12/24 01:12:43;;;;;;;25.17;12.52;;;0.70;82.80;;;;;;5074312;28;20048;-43
2020/12/24 01:15:10;;;;;;;20.50;11.85;;;0.70;82.80;;;;;;5075204;28;20393;-44
2020/12/24 01:17:37;;;;;;;20.13;11.18;;;0.60;82.80;;;;;;5074538;28;20016;-44
2020/12/24 01:20:05;;;;;;;20.15;11.35;;;0.60;82.80;;;;;;5075318;28;20035;-44
2020/12/24 01:22:31;;;;;;;23.15;12.38;;;0.60;82.80;;;;;;5074626;28;20021;-43
2020/12/24 01:24:57;;;;;;;19.60;11.73;;;0.60;82.80;;;;;;5074852;28;20029;-44
2020/12/24 01:27:23;;;;;;;21.80;11.55;;;0.60;83.30;;;;;;5074660;28;20441;-46
2020/12/24 01:29:48;;;;;;;19.60;12.00;;;0.60;82.80;;;;;;5075472;28;20056;-43
2020/12/24 01:32:14;;;;;;;21.13;11.85;;;0.60;82.80;;;;;;5074500;28;20024;-45
2020/12/24 01:34:40;;;;;;;21.92;11.85;;;0.60;82.90;;;;;;5075388;28;20046;-43
2020/12/24 01:37:05;;;;;;;18.10;11.32;;;0.60;82.90;;;;;;5074934;28;20330;-45
2020/12/24 01:39:31;;;;;;;20.45;11.32;;;0.60;83.00;;;;;;5075169;28;20037;-43
2020/12/24 01:41:57;;;;;;;19.92;11.77;;;0.60;83.00;;;;;;5075059;28;20039;-44
2020/12/24 01:44:23;;;;;;;22.27;12.27;;;0.50;83.00;;;;;;5074670;28;20439;-45
2020/12/24 01:46:49;;;;;;;20.25;11.98;;;0.60;83.00;;;;;;5074986;28;20032;-43
2020/12/24 01:49:18;;;;;;;23.42;12.70;;;0.60;83.10;;;;;;5076028;28;20412;-45
2020/12/24 01:51:51;;;;;;;22.13;12.35;;;0.60;83.20;;;;;;5078635;28;20020;-45
2020/12/24 01:54:18;;;;;;;21.10;11.77;;;0.60;83.20;;;;;;5077218;28;20048;-47
2020/12/24 01:56:45;;;;;;;21.25;12.68;;;0.60;83.30;;;;;;5079098;28;20036;-44
2020/12/24 01:59:15;;;;;;;19.20;11.48;;;0.60;83.20;;;;;;5077927;28;20048;-46
2020/12/24 02:01:47;;;;;;;22.30;12.35;;;0.60;83.30;;;;;;5078345;28;20044;-46
2020/12/24 02:04:14;;;;;;;20.65;11.93;;;0.60;83.20;;;;;;5078118;28;20055;-48
2020/12/24 02:06:41;;;;;;;20.70;11.43;;;0.60;83.30;;;;;;5078583;28;20082;-44
2020/12/24 02:09:08;;;;;;;23.45;13.40;;;0.60;83.30;;;;;;5077431;28;20028;-47
2020/12/24 02:11:35;;;;;;;22.02;12.15;;;0.70;83.40;;;;;;5077860;28;20041;-44
2020/12/24 02:14:01;;;;;;;20.38;11.07;;;0.70;83.40;;;;;;5078021;28;20051;-43
2020/12/24 02:16:27;;;;;;;19.42;11.60;;;0.70;83.30;;;;;;5077780;28;20326;-44
2020/12/24 02:18:53;;;;;;;19.00;10.45;;;0.70;83.20;;;;;;5077758;28;20024;-43
2020/12/24 02:21:19;;;;;;;20.55;11.63;;;0.70;83.10;;;;;;5077989;28;20043;-44
2020/12/24 02:23:45;;;;;;;18.65;11.65;;;0.70;83.00;;;;;;5077285;28;20368;-43
2020/12/24 02:26:11;;;;;;;20.60;11.15;;;0.70;83.10;;;;;;5077999;28;20131;-43
2020/12/24 02:28:37;;;;;;;22.13;11.30;;;0.70;83.00;;;;;;5078037;28;20091;-44
2020/12/24 02:31:03;;;;;;;18.25;10.85;;;0.70;82.90;;;;;;5078287;28;20029;-44
2020/12/24 02:33:29;;;;;;;21.35;11.43;;;0.70;82.80;;;;;;5077526;28;20361;-43
2020/12/24 02:35:55;;;;;;;22.83;12.23;;;0.70;82.90;;;;;;5077809;28;20058;-44
2020/12/24 02:38:21;;;;;;;18.80;11.38;;;0.70;83.00;;;;;;5076880;28;20102;-45
2020/12/24 02:40:47;;;;;;;23.30;12.40;;;0.70;83.00;;;;;;5077898;28;20036;-43
2020/12/24 02:43:12;;;;;;;18.35;11.00;;;0.80;82.90;;;;;;5077055;28;20025;-43
2020/12/24 02:45:38;;;;;;;19.52;12.27;;;0.70;82.80;;;;;;5077567;28;20029;-44
2020/12/24 02:48:04;;;;;;;22.25;11.98;;;0.80;82.80;;;;;;5076353;28;20048;-43
2020/12/24 02:50:30;;;;;;;19.48;11.10;;;0.80;82.80;;;;;;5077178;28;20111;-44
2020/12/24 02:52:56;;;;;;;21.42;12.00;;;0.70;82.60;;;;;;5077033;28;20119;-43
2020/12/24 02:55:21;;;;;;;19.55;11.68;;;0.70;82.50;;;;;;5076869;28;20044;-45
2020/12/24 02:57:47;;;;;;;20.63;11.65;;;0.70;82.60;;;;;;5076615;28;20073;-43
2020/12/24 03:00:13;;;;;;;21.38;11.10;;;0.70;82.60;;;;;;5076660;28;20033;-45
2020/12/24 03:02:39;;;;;;;23.27;12.45;;;0.80;82.60;;;;;;5076309;28;20024;-43
2020/12/24 03:05:05;;;;;;;21.10;11.45;;;0.80;82.60;;;;;;5077293;28;20040;-43
2020/12/24 03:07:31;;;;;;;18.95;10.20;;;0.80;82.40;;;;;;5076788;28;20044;-43
2020/12/24 03:09:57;;;;;;;19.65;10.75;;;0.80;82.50;;;;;;5076325;28;20426;-45
2020/12/24 03:12:24;;;;;;;18.75;11.05;;;0.80;82.40;;;;;;5076483;28;20063;-43
2020/12/24 03:14:53;;;;;;;16.08;9.75;;;0.80;82.40;;;;;;5077107;28;20044;-44
2020/12/24 03:17:19;;;;;;;17.67;9.55;;;0.80;82.40;;;;;;5075979;28;20502;-43
2020/12/24 03:19:45;;;;;;;19.02;9.88;;;0.80;82.30;;;;;;5077151;28;20356;-44
2020/12/24 03:22:11;;;;;;;18.45;10.82;;;0.80;82.30;;;;;;5076457;28;20111;-44
2020/12/24 03:24:37;;;;;;;20.00;10.93;;;0.80;82.30;;;;;;5076579;28;20354;-44
2020/12/24 03:27:02;;;;;;;20.23;11.13;;;0.80;82.40;;;;;;5076836;28;20021;-43
2020/12/24 03:29:29;;;;;;;19.92;11.35;;;0.80;82.30;;;;;;5076546;28;20024;-44
2020/12/24 03:31:56;;;;;;;19.45;10.15;;;0.80;82.30;;;;;;5076371;28;20026;-43
2020/12/24 03:34:21;;;;;;;20.67;11.40;;;0.80;82.30;;;;;;5076306;28;20040;-44
2020/12/24 03:36:47;;;;;;;19.23;10.90;;;0.80;82.30;;;;;;5076630;28;20402;-44
2020/12/24 03:39:13;;;;;;;18.65;10.95;;;0.80;82.30;;;;;;5076140;28;20103;-43
2020/12/24 03:41:38;;;;;;;20.25;10.38;;;0.80;82.30;;;;;;5076714;28;20334;-46
2020/12/24 03:44:04;;;;;;;20.20;10.73;;;0.80;82.30;;;;;;5076672;28;20312;-45
2020/12/24 03:46:30;;;;;;;18.02;11.05;;;0.80;82.30;;;;;;5075915;28;20024;-45
2020/12/24 03:48:55;;;;;;;18.27;10.75;;;0.80;82.30;;;;;;5075902;28;20029;-43
2020/12/24 03:51:21;;;;;;;20.02;11.55;;;0.80;82.30;;;;;;5075697;28;20032;-44
2020/12/24 03:53:47;;;;;;;18.75;10.30;;;0.90;82.40;;;;;;5075417;28;20041;-44
2020/12/24 03:56:12;;;;;;;18.00;10.70;;;0.90;82.40;;;;;;5075608;28;20039;-45
2020/12/24 03:58:39;;;;;;;22.95;11.70;;;0.90;82.30;;;;;;5075818;28;20036;-43
2020/12/24 04:01:05;;;;;;;17.10;10.10;;;0.90;82.20;;;;;;5075711;28;20029;-44
2020/12/24 04:03:31;;;;;;;18.70;11.50;;;0.90;82.20;;;;;;5075664;28;20025;-45
2020/12/24 04:05:56;;;;;;;20.33;11.60;;;0.90;82.10;;;;;;5076052;28;20033;-44
2020/12/24 04:08:22;;;;;;;14.73;9.55;;;0.90;82.10;;;;;;5075303;28;20032;-43
2020/12/24 04:10:48;;;;;;;15.10;9.73;;;0.90;82.00;;;;;;5075655;28;20086;-45
2020/12/24 04:13:14;;;;;;;17.55;10.25;;;0.90;82.00;;;;;;5075261;28;20056;-43
2020/12/24 04:15:39;;;;;;;16.20;9.48;;;0.90;81.90;;;;;;5075688;28;20089;-43
2020/12/24 04:18:05;;;;;;;18.10;10.50;;;0.90;82.00;;;;;;5075102;28;20060;-44
2020/12/24 04:20:31;;;;;;;16.08;9.07;;;0.90;82.00;;;;;;5076126;28;20025;-44
2020/12/24 04:22:56;;;;;;;15.77;9.52;;;0.90;82.00;;;;;;5075037;28;20024;-43
2020/12/24 04:25:23;;;;;;;18.70;10.38;;;0.90;82.00;;;;;;5075691;28;20434;-44
2020/12/24 04:27:48;;;;;;;18.70;9.80;;;0.90;82.10;;;;;;5075251;28;20028;-44
2020/12/24 04:30:14;;;;;;;19.50;10.45;;;1.00;82.10;;;;;;5075426;28;20047;-44
2020/12/24 04:32:40;;;;;;;18.92;10.13;;;1.00;82.10;;;;;;5075189;28;20028;-43
2020/12/24 04:35:05;;;;;;;16.85;10.25;;;1.00;82.00;;;;;;5075967;28;20036;-43
2020/12/24 04:37:31;;;;;;;15.80;9.82;;;1.00;82.00;;;;;;5075306;28;20081;-43
2020/12/24 04:39:57;;;;;;;17.00;9.70;;;1.00;81.80;;;;;;5075631;28;20429;-44
2020/12/24 04:42:23;;;;;;;16.27;10.00;;;1.10;81.80;;;;;;5075165;28;20029;-46
2020/12/24 04:44:49;;;;;;;20.00;9.35;;;1.10;81.70;;;;;;5075474;28;20348;-44
2020/12/24 04:47:18;;;;;;;15.32;8.63;;;1.10;81.80;;;;;;5073604;28;20456;-44
2020/12/24 04:49:45;;;;;;;19.20;10.95;;;1.10;81.80;;;;;;5075893;28;20031;-45
2020/12/24 04:52:13;;;;;;;15.82;10.23;;;1.10;81.80;;;;;;5074704;28;20456;-43
2020/12/24 04:54:40;;;;;;;16.25;9.82;;;1.20;81.80;;;;;;5075429;28;20105;-43
2020/12/24 04:57:09;;;;;;;17.05;10.55;;;1.20;81.50;;;;;;5075358;28;20029;-44
2020/12/24 04:59:36;;;;;;;18.40;11.27;;;1.20;81.50;;;;;;5074971;28;20341;-45
2020/12/24 05:02:03;;;;;;;22.02;12.02;;;1.20;81.60;;;;;;5075262;28;20112;-43
2020/12/24 05:04:30;;;;;;;21.85;11.02;;;1.20;81.60;;;;;;5075112;28;20036;-46
2020/12/24 05:07:04;;;;;;;23.85;12.75;;;1.30;81.60;;;;;;5075639;28;20276;-44
2020/12/24 05:09:30;;;;;;;21.73;11.43;;;1.30;81.60;;;;;;5075345;28;20033;-43
2020/12/24 05:11:56;;;;;;;18.00;11.25;;;1.40;81.50;;;;;;5074994;28;20052;-45
2020/12/24 05:14:23;;;;;;;16.67;10.40;;;1.40;81.20;;;;;;5075657;28;20128;-48
2020/12/24 05:17:08;;;;;;;19.38;11.43;;;1.30;81.00;;;;;;5071371;28;20037;-46
2020/12/24 05:19:47;;;;;;;18.20;10.00;;;1.30;80.90;;;;;;5073651;28;20024;-43
2020/12/24 05:22:18;;;;;;;22.25;11.52;;;1.30;81.00;;;;;;5075171;28;20040;-42
2020/12/24 05:24:44;;;;;;;16.75;10.45;;;1.30;81.10;;;;;;5078170;28;20030;-44
2020/12/24 05:27:11;;;;;;;20.25;11.23;;;1.30;81.00;;;;;;5077874;28;20573;-44
2020/12/24 05:29:39;;;;;;;18.85;10.65;;;1.30;81.00;;;;;;5077234;28;20028;-45
2020/12/24 05:32:06;;;;;;;21.95;11.57;;;1.30;81.00;;;;;;5083560;28;20032;-44
2020/12/24 05:34:31;;;;;;;21.00;11.73;;;1.30;81.00;;;;;;5093107;28;20106;-43
2020/12/24 05:37:10;;;;;;;20.00;11.07;;;1.30;80.90;;;;;;5084357;28;20032;-43
2020/12/24 05:39:35;;;;;;;26.95;11.48;;;1.30;80.80;;;;;;5088672;28;20020;-44
2020/12/24 05:42:05;;;;;;;20.58;10.73;;;1.30;80.80;;;;;;5080332;28;20087;-44
2020/12/24 05:44:31;;;;;;;20.60;11.07;;;1.30;80.80;;;;;;5077624;28;20028;-40
2020/12/24 05:46:57;;;;;;;20.40;10.93;;;1.30;81.00;;;;;;5082255;28;20120;-43
2020/12/24 05:49:24;;;;;;;22.45;12.98;;;1.30;81.00;;;;;;5095569;28;20020;-41
2020/12/24 05:52:01;;;;;;;19.85;10.00;;;1.30;81.00;;;;;;5081874;28;20074;-42
2020/12/24 05:54:30;;;;;;;19.23;11.02;;;1.30;81.00;;;;;;5057970;28;20381;-46
2020/12/24 05:56:57;;;;;;;24.30;11.63;;;1.30;80.80;;;;;;5092231;28;20035;-43
2020/12/24 05:59:26;;;;;;;24.05;12.70;;;1.30;80.70;;;;;;5098369;28;20111;-43
2020/12/24 06:02:10;;;;;;;23.27;13.60;;;1.20;80.60;;;;;;5084262;28;20028;-45
2020/12/24 06:04:48;;;;;;;22.88;13.43;;;1.20;80.60;;;;;;5077985;28;20521;-45
2020/12/24 06:07:19;;;;;;;27.80;14.90;;;1.10;80.60;;;;;;5057971;28;20024;-43
2020/12/24 06:09:49;;;;;;;25.40;13.88;;;1.10;80.90;;;;;;5058104;28;20021;-44
2020/12/24 06:12:25;;;;;;;30.75;16.48;;;1.10;81.10;;;;;;5079279;28;20060;-46
2020/12/24 06:14:57;;;;;;;26.38;15.27;;;1.10;81.30;;;;;;5078772;28;20083;-45
2020/12/24 06:17:23;;;;;;;;;;;1.00;81.30;;;;;;5076267;28;20062;-45
2020/12/24 06:19:49;;;;;;;30.83;14.77;;;1.00;81.20;;;;;;5077317;28;20191;-44
2020/12/24 06:22:16;;;;;;;28.30;14.82;;;1.00;81.40;;;;;;5085842;28;20036;-43
2020/12/24 06:24:44;;;;;;;27.25;14.38;;;0.90;81.60;;;;;;5078952;28;20082;-44
2020/12/24 06:27:15;;;;;;;26.08;13.63;;;0.90;81.90;;;;;;5086262;28;20050;-44
2020/12/24 06:29:44;;;;;;;29.42;14.85;;;0.90;82.00;;;;;;5091900;28;20555;-43
2020/12/24 06:32:12;;;;;;;29.85;15.77;;;0.90;82.00;;;;;;5060431;28;20091;-44
2020/12/24 06:34:41;;;;;;;25.15;14.48;;;0.90;82.10;;;;;;5060200;28;20040;-43
2020/12/24 06:37:18;;;;;;;32.95;16.90;;;0.90;82.20;;;;;;5075639;28;20379;-43
2020/12/24 06:39:48;;;;;;;29.20;16.10;;;0.90;82.30;;;;;;5070852;28;20043;-43
2020/12/24 06:42:38;;;;;;;27.63;15.43;;;1.00;82.30;;;;;;5077049;28;20024;-44
2020/12/24 06:45:08;;;;;;;33.85;16.63;;;1.00;82.30;;;;;;5077471;28;20356;-43
2020/12/24 06:47:34;;;;;;;38.22;20.42;;;1.00;82.30;;;;;;5077011;28;20414;-45
2020/12/24 06:50:00;;;;;;;36.00;17.25;;;1.00;82.40;;;;;;5062158;28;20111;-42
2020/12/24 06:52:30;;;;;;;27.25;13.90;;;1.00;82.40;;;;;;5056873;28;20179;-43
2020/12/24 06:55:15;;;;;;;29.73;16.53;;;1.00;82.30;;;;;;5056883;28;20056;-43
2020/12/24 06:57:45;;;;;;;24.13;13.75;;;1.10;82.30;;;;;;5063993;28;20034;-43
2020/12/24 07:00:21;;;;;;;28.65;14.60;;;1.10;82.40;;;;;;5065439;28;20056;-43
2020/12/24 07:02:49;;;;;;;24.33;14.43;;;1.10;82.40;;;;;;5054943;28;20062;-44
2020/12/24 07:05:46;;;;;;;25.42;15.05;;;1.10;82.30;;;;;;5055133;28;20055;-43
2020/12/24 07:08:47;;;;;;;37.85;20.02;;;1.20;82.20;;;;;;5061827;28;20432;-44
2020/12/24 07:11:44;;;;;;;25.17;13.85;;;1.20;82.30;;;;;;5050663;28;20072;-43
2020/12/24 07:14:38;;;;;;;25.25;14.77;;;1.30;82.30;;;;;;5055304;28;20045;-43
2020/12/24 07:17:10;;;;;;;26.90;17.50;;;1.30;82.20;;;;;;5074680;28;20039;-43
2020/12/24 07:19:41;;;;;;;28.38;14.85;;;1.30;82.10;;;;;;5075562;28;20078;-43
2020/12/24 07:22:09;;;;;;;26.27;13.35;;;1.30;82.00;;;;;;5076341;28;20032;-43
2020/12/24 07:24:36;;;;;;;30.52;16.20;;;1.40;81.90;;;;;;5073338;28;20036;-43
2020/12/24 07:27:03;;;;;;;28.55;15.07;;;1.40;82.00;;;;;;5076338;28;20021;-42
2020/12/24 07:29:31;;;;;;;28.60;15.23;;;1.40;82.00;;;;;;5074405;28;20024;-41
2020/12/24 07:32:04;;;;;;;25.02;14.52;;;1.50;82.10;;;;;;5073818;28;20141;-43
2020/12/24 07:34:33;;;;;;;24.33;13.20;;;1.50;82.00;;;;;;5073873;28;20075;-42
2020/12/24 07:36:59;;;;;;;28.05;15.40;;;1.50;81.90;;;;;;5074776;28;20028;-42
2020/12/24 07:39:25;;;;;;;29.90;14.07;;;1.50;81.60;;;;;;5073835;28;20093;-42
2020/12/24 07:41:51;;;;;;;33.08;14.93;;;1.50;81.40;;;;;;5074577;28;20418;-42
2020/12/24 07:44:18;;;;;;;21.55;12.52;;;1.40;81.50;;;;;;5073891;28;20043;-42
2020/12/24 07:46:46;;;;;;;25.67;13.63;;;1.40;81.60;;;;;;5074735;28;20043;-42
2020/12/24 07:49:12;;;;;;;25.33;13.98;;;1.50;81.80;;;;;;5070281;28;20025;-42
2020/12/24 07:51:38;;;;;;;30.95;15.10;;;1.50;81.90;;;;;;5063818;28;20025;-42
2020/12/24 07:54:15;;;;;;;26.15;14.35;;;1.50;82.00;;;;;;5084127;28;20046;-42
2020/12/24 07:56:45;;;;;;;27.27;14.18;;;1.50;82.00;;;;;;5096154;28;20332;-41
2020/12/24 07:59:13;;;;;;;27.85;14.77;;;1.50;81.90;;;;;;5077191;28;20032;-42
2020/12/24 08:01:39;;;;;;;27.30;15.93;;;1.60;82.00;;;;;;5070684;28;20074;-42
2020/12/24 08:04:05;;;;;;;31.27;14.18;;;1.60;82.00;;;;;;5056236;28;20025;-43
2020/12/24 08:06:33;;;;;;;28.90;16.08;;;1.60;81.90;;;;;;5055834;28;20115;-43
2020/12/24 08:09:14;;;;;;;27.10;14.55;;;1.60;81.80;;;;;;5067242;28;20342;-46
2020/12/24 08:11:40;;;;;;;;;;;1.60;81.70;;;;;;5075337;28;20041;-44
2020/12/24 08:14:07;;;;;;;43.20;17.70;;;1.60;81.70;;;;;;5073241;28;19923;-44
2020/12/24 08:16:39;;;;;;;33.05;16.88;;;1.60;81.70;;;;;;5073000;28;20031;-43
2020/12/24 08:19:31;;;;;;;39.58;18.25;;;1.60;81.90;;;;;;5074690;28;20048;-45
2020/12/24 08:22:21;;;;;;;42.95;21.30;;;1.60;82.20;;;;;;5087307;28;20025;-43
2020/12/24 08:24:47;;;;;;;37.22;17.35;;;1.60;82.10;;;;;;5089370;28;20028;-44
2020/12/24 08:27:13;;;;;;;32.45;19.02;;;1.60;82.10;;;;;;5073036;28;20085;-43
2020/12/24 08:29:39;;;;;;;39.85;21.38;;;1.60;82.10;;;;;;5067231;28;20132;-43
2020/12/24 08:32:06;;;;;;;36.67;19.50;;;1.70;82.10;;;;;;5064816;28;20025;-44
2020/12/24 08:34:32;;;;;;;41.17;21.23;;;1.70;82.10;;;;;;5075226;28;20080;-43
2020/12/24 08:36:58;;;;;;;38.25;21.02;;;1.70;82.10;;;;;;5075512;28;20386;-47
2020/12/24 08:39:24;;;;;;;52.13;24.15;;;1.80;82.20;;;;;;5074853;28;20040;-43
2020/12/24 08:41:53;;;;;;;46.17;23.15;;;1.80;82.10;;;;;;5074872;28;20452;-44
2020/12/24 08:44:19;;;;;;;38.78;20.05;;;1.80;81.90;;;;;;5074800;28;20029;-43
2020/12/24 08:46:46;;;;;;;43.92;21.67;;;1.90;81.80;;;;;;5075182;28;20315;-44
2020/12/24 08:49:25;;;;;;;56.10;26.58;;;1.90;81.70;;;;;;5075019;28;20372;-44
2020/12/24 08:52:09;;;;;;;47.45;21.02;;;1.90;81.70;;;;;;5075004;28;20020;-43
2020/12/24 08:54:35;;;;;;;49.08;24.75;;;1.90;81.60;;;;;;5073711;28;20048;-43
2020/12/24 08:57:03;;;;;;;37.47;19.65;;;1.90;81.70;;;;;;5073977;28;20123;-43
2020/12/24 08:59:28;;;;;;;42.60;22.50;;;2.00;81.70;;;;;;5070273;28;20044;-43
2020/12/24 09:01:56;;;;;;;47.00;21.83;;;2.00;81.60;;;;;;5058765;28;20025;-45
2020/12/24 09:04:22;;;;;;;40.65;20.52;;;2.00;81.60;;;;;;5057246;28;20033;-43
2020/12/24 09:06:47;;;;;;;38.25;20.30;;;2.00;81.50;;;;;;5057322;28;20029;-48
2020/12/24 09:09:24;;;;;;;34.85;19.60;;;2.00;81.40;;;;;;5078931;28;20032;-45
2020/12/24 09:11:51;;;;;;;42.63;21.30;;;2.00;81.30;;;;;;5075245;28;20040;-48
2020/12/24 09:14:19;;;;;;;35.72;19.27;;;2.00;81.30;;;;;;5080927;28;20035;-48
2020/12/24 09:16:55;;;;;;;34.95;17.58;;;2.00;81.40;;;;;;5075127;28;20111;-44
2020/12/24 09:19:21;;;;;;;33.38;18.15;;;2.00;81.40;;;;;;5077776;28;20036;-45
2020/12/24 09:21:57;;;;;;;42.33;21.55;;;2.00;81.30;;;;;;5078685;28;20013;-45
2020/12/24 09:24:23;;;;;;;32.22;16.67;;;2.00;81.40;;;;;;5076189;28;20123;-41
2020/12/24 09:26:59;;;;;;;33.80;16.42;;;2.00;81.30;;;;;;5079581;28;20409;-42
2020/12/24 09:29:27;;;;;;;30.55;15.68;;;2.00;81.30;;;;;;5075802;28;20029;-41
2020/12/24 09:31:53;;;;;;;41.08;22.45;;;2.00;81.30;;;;;;5076885;28;20112;-41
2020/12/24 09:34:19;;;;;;;28.65;15.77;;;2.00;81.40;;;;;;5070461;28;20123;-44
2020/12/24 09:36:48;;;;;;;37.65;22.63;;;2.00;81.40;;;;;;5085372;28;20090;-43
2020/12/24 09:39:15;;;;;;;41.17;19.35;;;2.00;81.40;;;;;;5076672;28;20082;-42
2020/12/24 09:41:45;;;;;;;34.53;16.73;;;2.00;81.50;;;;;;5074796;28;20032;-43
2020/12/24 09:44:11;;;;;;;37.30;17.87;;;2.00;81.50;;;;;;5056782;28;20051;-42
2020/12/24 09:46:37;;;;;;;37.88;17.83;;;2.00;81.40;;;;;;5072462;28;20020;-44
2020/12/24 09:49:04;;;;;;;32.75;16.90;;;2.00;81.40;;;;;;5071992;28;20047;-43
2020/12/24 09:51:36;;;;;;;32.58;17.85;;;2.00;81.40;;;;;;5076542;28;20016;-42
2020/12/24 09:54:06;;;;;;;44.95;17.77;;;2.00;81.70;;;;;;5079964;28;20047;-42
2020/12/24 09:56:33;;;;;;;35.50;17.70;;;2.00;81.90;;;;;;5086813;28;20050;-44
2020/12/24 09:58:59;;;;;;;27.80;16.73;;;2.00;81.80;;;;;;5077610;28;20119;-42
2020/12/24 10:01:25;;;;;;;32.97;17.45;;;2.10;81.70;;;;;;5074708;28;20376;-41
2020/12/24 10:03:51;;;;;;;38.92;18.20;;;2.10;81.70;;;;;;5075932;28;20032;-42
2020/12/24 10:06:17;;;;;;;28.48;16.50;;;2.10;81.80;;;;;;5076798;28;20021;-50
2020/12/24 10:08:43;;;;;;;27.08;15.68;;;2.10;81.60;;;;;;5057815;28;20029;-50
2020/12/24 10:11:15;;;;;;;32.22;17.00;;;2.20;81.50;;;;;;5058868;28;20031;-42
2020/12/24 10:13:42;;;;;;;42.40;18.85;;;2.20;81.50;;;;;;5073948;28;20029;-50
2020/12/24 10:16:08;;;;;;;41.03;20.23;;;2.20;81.50;;;;;;5063990;28;20071;-53
2020/12/24 10:18:34;;;;;;;41.38;20.95;;;2.20;81.50;;;;;;5072743;28;20036;-42
2020/12/24 10:21:00;;;;;;;38.15;20.02;;;2.20;81.50;;;;;;5074360;28;20017;-43
2020/12/24 10:23:26;;;;;;;33.10;19.52;;;2.30;81.50;;;;;;5075587;28;20024;-42
2020/12/24 10:25:52;;;;;;;49.78;27.67;;;2.30;81.50;;;;;;5075645;28;20027;-42
2020/12/24 10:28:18;;;;;;;38.10;20.17;;;2.30;81.30;;;;;;5075476;28;20036;-40
2020/12/24 10:30:44;;;;;;;50.25;25.08;;;2.30;81.30;;;;;;5075861;28;20028;-41
2020/12/24 10:33:10;;;;;;;41.90;21.73;;;2.30;81.30;;;;;;5076501;28;20036;-40
2020/12/24 10:35:39;;;;;;;48.28;29.50;;;2.30;81.20;;;;;;5077022;28;20028;-40
2020/12/24 10:38:05;;;;;;;48.05;25.20;;;2.30;81.30;;;;;;5074475;28;20059;-39
2020/12/24 10:40:31;;;;;;;40.95;20.65;;;2.30;81.20;;;;;;5076926;28;20406;-40
2020/12/24 10:42:57;;;;;;;40.38;19.70;;;2.30;81.10;;;;;;5077265;28;20119;-39
2020/12/24 10:45:25;;;;;;;35.17;18.17;;;2.30;81.20;;;;;;5074975;28;20381;-40
2020/12/24 10:47:51;;;;;;;38.15;21.15;;;2.30;81.20;;;;;;5075762;28;20028;-40
2020/12/24 10:50:17;;;;;;;33.50;18.38;;;2.30;81.30;;;;;;5076494;28;20491;-40
2020/12/24 10:52:43;;;;;;;31.90;17.25;;;2.30;81.30;;;;;;5076270;28;20545;-39
2020/12/24 10:55:09;;;;;;;36.42;17.50;;;2.30;81.50;;;;;;5075939;28;20028;-40
2020/12/24 10:57:35;;;;;;;35.58;19.10;;;2.40;81.60;;;;;;5061792;28;20128;-39
2020/12/24 11:00:02;;;;;;;32.55;16.88;;;2.40;81.50;;;;;;5056849;28;20119;-39
2020/12/24 11:02:27;;;;;;;35.03;16.40;;;2.40;81.40;;;;;;5054940;28;20028;-39
2020/12/24 11:04:53;;;;;;;32.88;16.83;;;2.50;81.30;;;;;;5056785;28;20136;-40
2020/12/24 11:07:19;;;;;;;32.45;17.08;;;2.50;81.10;;;;;;5057376;28;20032;-40
2020/12/24 11:09:44;;;;;;;37.17;17.83;;;2.50;81.10;;;;;;5056160;28;20037;-37
2020/12/24 11:12:10;;;;;;;33.42;17.58;;;2.50;81.20;;;;;;5055244;28;20082;-38
2020/12/24 11:14:36;;;;;;;33.42;16.92;;;2.50;81.20;;;;;;5056299;28;20041;-38
2020/12/24 11:17:03;;;;;;;32.42;19.05;;;2.50;81.10;;;;;;5056281;28;20102;-39
2020/12/24 11:19:28;;;;;;;35.75;19.15;;;2.50;81.00;;;;;;5056736;28;20033;-37
2020/12/24 11:21:54;;;;;;;42.63;20.30;;;2.50;81.00;;;;;;5056465;28;20307;-38
2020/12/24 11:24:20;;;;;;;45.65;21.52;;;2.50;81.00;;;;;;5053653;28;20039;-38
2020/12/24 11:26:46;;;;;;;35.78;19.48;;;2.50;81.20;;;;;;5056487;28;20100;-41
2020/12/24 11:29:11;;;;;;;35.03;17.90;;;2.50;81.20;;;;;;5055559;28;20035;-38
2020/12/24 11:31:38;;;;;;;37.40;18.25;;;2.50;81.20;;;;;;5056081;28;20020;-40
2020/12/24 11:34:05;;;;;;;33.47;18.92;;;2.50;81.20;;;;;;5055670;28;20079;-38
2020/12/24 11:36:31;;;;;;;29.38;18.02;;;2.50;81.10;;;;;;5056154;28;20065;-38
2020/12/24 11:38:59;;;;;;;31.92;17.90;;;2.50;81.10;;;;;;5073830;28;20326;-38
2020/12/24 11:41:29;;;;;;;33.92;20.27;;;2.50;81.20;;;;;;5068757;28;20029;-38
2020/12/24 11:43:55;;;;;;;44.20;22.60;;;2.50;81.20;;;;;;5054962;28;20140;-38
2020/12/24 11:46:23;;;;;;;40.72;22.27;;;2.50;81.20;;;;;;5060231;28;20021;-38
2020/12/24 11:48:49;;;;;;;39.00;21.55;;;2.60;81.20;;;;;;5066118;28;20075;-38
2020/12/24 11:51:17;;;;;;;48.58;24.77;;;2.50;81.20;;;;;;5055584;28;20032;-39
2020/12/24 11:53:43;;;;;;;39.17;21.60;;;2.50;81.10;;;;;;5061703;28;20028;-39
2020/12/24 11:56:14;;;;;;;35.67;20.88;;;2.50;81.10;;;;;;5075572;28;20115;-39
2020/12/24 11:58:44;;;;;;;42.15;22.30;;;2.50;81.20;;;;;;5073406;28;20370;-37
2020/12/24 12:01:17;;;;;;;42.63;22.15;;;2.50;81.20;;;;;;5074071;28;20048;-37
2020/12/24 12:03:47;;;;;;;40.83;23.35;;;2.50;81.20;;;;;;5073254;28;20029;-37
2020/12/24 12:06:13;;;;;;;42.55;23.45;;;2.50;81.20;;;;;;5073378;28;20028;-37
2020/12/24 12:08:39;;;;;;;39.08;22.08;;;2.50;81.30;;;;;;5073244;28;20453;-38
2020/12/24 12:11:06;;;;;;;43.90;23.08;;;2.50;81.30;;;;;;5074359;28;20035;-39
2020/12/24 12:13:32;;;;;;;38.67;22.10;;;2.40;81.40;;;;;;5072352;28;20067;-39
2020/12/24 12:15:58;;;;;;;46.58;24.52;;;2.40;81.40;;;;;;5073499;28;20024;-38
2020/12/24 12:18:24;;;;;;;43.83;24.35;;;2.40;82.10;;;;;;5072728;28;20040;-38
2020/12/24 12:20:51;;;;;;;38.47;22.02;;;2.40;81.60;;;;;;5073782;28;20032;-39
2020/12/24 12:23:17;;;;;;;41.53;22.92;;;2.40;81.60;;;;;;5065310;28;20033;-39
2020/12/24 12:25:42;;;;;;;40.35;22.52;;;2.40;81.70;;;;;;5075387;28;20028;-42
2020/12/24 12:28:11;;;;;;;45.92;23.13;;;2.40;81.80;;;;;;5077534;28;20109;-45
2020/12/24 12:30:38;;;;;;;45.92;24.30;;;2.30;81.80;;;;;;5072262;28;20106;-39
2020/12/24 12:33:03;;;;;;;46.88;22.88;;;2.30;82.00;;;;;;5081502;28;20027;-44
2020/12/24 12:35:30;;;;;;;41.50;23.63;;;2.30;82.10;;;;;;5080846;28;20488;-43
2020/12/24 12:37:55;;;;;;;43.05;23.92;;;2.30;82.10;;;;;;5069905;28;20036;-43
2020/12/24 12:40:22;;;;;;;44.58;24.95;;;2.30;82.10;;;;;;5072913;28;20051;-43
2020/12/24 12:42:48;;;;;;;83.38;41.38;;;2.30;82.20;;;;;;5068642;28;20021;-38